Time;durP1;ratioP1;P1;durP2;ratioP2;P2;SDS_P1;SDS_P2;PMS_P1;PMS_P2;Temp;Humidity;BMP_temperature;BMP_pressure;BME280_temperature;BME280_humidity;BME280_pressure;Samples;Min_cycle;Max_cycle;Signal;HPM_P1;HPM_P2
2022/11/27 00:00:10;;;;;;;11.60;5.73;;;7.80;99.90;;;;;;5155764;27;20199;-87
2022/11/27 00:02:37;;;;;;;16.90;6.00;;;7.80;99.90;;;;;;5156942;27;20226;-90
2022/11/27 00:05:06;;;;;;;12.77;5.70;;;7.90;99.90;;;;;;5156832;27;20191;-88
2022/11/27 00:07:34;;;;;;;13.60;5.87;;;7.90;99.90;;;;;;5157118;27;20195;-89
2022/11/27 00:10:01;;;;;;;11.13;5.83;;;7.90;99.90;;;;;;5156345;27;20203;-88
2022/11/27 00:12:28;;;;;;;13.23;6.17;;;7.80;99.90;;;;;;5155549;27;20195;-87
2022/11/27 00:14:56;;;;;;;15.57;6.50;;;8.00;99.90;;;;;;5156053;27;20260;-88
2022/11/27 00:17:23;;;;;;;9.70;5.73;;;7.90;99.90;;;;;;5156852;27;20207;-88
2022/11/27 00:19:49;;;;;;;16.80;6.53;;;7.90;99.90;;;;;;5156421;27;20198;-89
2022/11/27 00:22:16;;;;;;;12.63;6.17;;;7.90;99.90;;;;;;5156578;27;20227;-88
2022/11/27 00:24:44;;;;;;;11.30;5.87;;;8.00;99.90;;;;;;5156394;27;20211;-88
2022/11/27 00:27:11;;;;;;;13.88;6.95;;;7.90;99.90;;;;;;5156589;27;20424;-89
2022/11/27 00:29:37;;;;;;;13.83;6.47;;;7.90;99.90;;;;;;5156842;27;20191;-88
2022/11/27 00:32:07;;;;;;;11.50;6.50;;;7.90;99.90;;;;;;5156574;27;20210;-88
2022/11/27 00:34:35;;;;;;;14.33;5.67;;;7.80;99.90;;;;;;5153166;27;20238;-87
2022/11/27 00:37:06;;;;;;;16.70;6.40;;;7.90;99.90;;;;;;5155908;27;20200;-88
2022/11/27 00:39:32;;;;;;;12.60;6.00;;;7.90;99.90;;;;;;5156417;27;20656;-87
2022/11/27 00:41:59;;;;;;;13.43;6.77;;;8.00;99.90;;;;;;5156171;27;20226;-88
2022/11/27 00:44:27;;;;;;;13.30;5.80;;;8.10;99.90;;;;;;5155686;27;20203;-87
2022/11/27 00:46:56;;;;;;;14.97;6.67;;;8.10;99.90;;;;;;5155814;27;20212;-87
2022/11/27 00:49:24;;;;;;;13.10;5.17;;;8.10;99.90;;;;;;5156302;27;20213;-88
2022/11/27 00:51:52;;;;;;;11.80;5.23;;;8.10;99.90;;;;;;5155709;27;20226;-86
2022/11/27 00:54:19;;;;;;;10.27;5.30;;;8.20;99.90;;;;;;5155412;27;20209;-87
2022/11/27 00:56:47;;;;;;;16.45;6.72;;;8.10;99.90;;;;;;5154710;27;20448;-86
2022/11/27 00:59:14;;;;;;;12.33;5.53;;;8.10;99.90;;;;;;5155886;27;20199;-87
2022/11/27 01:01:42;;;;;;;13.00;5.30;;;8.10;99.90;;;;;;5154824;27;20600;-86
2022/11/27 01:04:13;;;;;;;13.27;5.03;;;8.10;99.90;;;;;;5155062;27;20199;-89
2022/11/27 01:06:42;;;;;;;12.93;5.07;;;8.10;99.90;;;;;;5155375;27;20202;-88
2022/11/27 01:09:11;;;;;;;14.43;5.47;;;8.10;99.90;;;;;;5154323;27;20199;-88
2022/11/27 01:11:38;;;;;;;10.60;4.20;;;8.10;99.90;;;;;;5134163;27;20660;-87
2022/11/27 01:14:08;;;;;;;9.30;4.27;;;8.20;99.90;;;;;;5132563;27;20595;-87
2022/11/27 01:16:36;;;;;;;9.80;4.17;;;8.20;99.90;;;;;;5132709;27;20199;-87
2022/11/27 01:19:04;;;;;;;10.33;3.93;;;8.10;99.90;;;;;;5134620;27;20249;-88
2022/11/27 01:21:32;;;;;;;9.90;4.63;;;8.20;99.90;;;;;;5134430;27;20223;-87
2022/11/27 01:24:02;;;;;;;10.33;3.90;;;8.20;99.90;;;;;;5134961;27;20222;-89
2022/11/27 01:26:30;;;;;;;16.93;4.30;;;8.10;99.90;;;;;;5134636;27;20232;-86
2022/11/27 01:28:58;;;;;;;14.70;3.87;;;8.10;99.90;;;;;;5134749;27;20666;-89
2022/11/27 01:31:26;;;;;;;10.40;4.27;;;8.20;99.90;;;;;;5134254;27;20670;-89
2022/11/27 01:33:56;;;;;;;12.70;3.93;;;8.20;99.90;;;;;;5134403;27;20215;-87
2022/11/27 01:36:23;;;;;;;10.77;3.93;;;8.20;99.90;;;;;;5134504;27;20200;-86
2022/11/27 01:38:50;;;;;;;12.87;3.60;;;8.20;99.90;;;;;;5133714;27;20207;-87
2022/11/27 01:41:22;;;;;;;13.07;4.33;;;8.20;99.90;;;;;;5133233;27;20223;-88
2022/11/27 01:43:50;;;;;;;8.30;4.10;;;8.30;99.90;;;;;;5134383;27;20210;-88
2022/11/27 01:46:36;;;;;;;14.63;3.33;;;8.20;99.90;;;;;;5133781;27;20202;-86
2022/11/27 01:49:24;;;;;;;13.80;3.53;;;8.20;99.90;;;;;;5131564;27;20208;-88
2022/11/27 01:51:56;;;;;;;9.07;3.30;;;8.10;99.90;;;;;;5133774;27;20224;-87
2022/11/27 01:54:26;;;;;;;10.50;3.37;;;8.10;99.90;;;;;;5133686;27;20242;-88
2022/11/27 01:57:01;;;;;;;8.20;3.13;;;8.10;99.90;;;;;;5134065;27;20294;-89
2022/11/27 01:59:27;;;;;;;10.60;3.20;;;8.10;99.90;;;;;;5134244;27;20195;-88
2022/11/27 02:01:54;;;;;;;10.30;3.50;;;8.20;99.90;;;;;;5134083;27;20254;-89
2022/11/27 02:04:21;;;;;;;11.07;3.03;;;8.20;99.90;;;;;;5134607;27;20206;-88
2022/11/27 02:06:49;;;;;;;9.77;3.57;;;8.20;99.90;;;;;;5134271;27;20196;-88
2022/11/27 02:09:16;;;;;;;6.87;3.30;;;8.20;99.90;;;;;;5133882;27;20195;-88
2022/11/27 02:11:51;;;;;;;10.03;3.37;;;8.20;99.90;;;;;;5132758;27;20643;-87
2022/11/27 02:14:26;;;;;;;10.13;3.27;;;8.10;99.90;;;;;;5133452;27;20187;-88
2022/11/27 02:17:02;;;;;;;6.40;2.50;;;8.10;99.90;;;;;;5134059;27;20206;-89
2022/11/27 02:19:54;;;;;;;12.17;3.17;;;8.10;99.90;;;;;;5134260;27;20210;-89
2022/11/27 02:22:33;;;;;;;8.37;2.50;;;8.10;99.90;;;;;;5134062;27;20231;-89
2022/11/27 02:25:06;;;;;;;9.00;2.87;;;8.10;99.90;;;;;;5133718;27;20574;-89
2022/11/27 02:27:51;;;;;;;11.93;3.30;;;8.20;99.90;;;;;;5134258;27;20232;-88
2022/11/27 02:30:20;;;;;;;10.70;2.80;;;8.20;99.90;;;;;;5133892;27;20204;-88
2022/11/27 02:32:51;;;;;;;7.53;2.40;;;8.10;99.90;;;;;;5134226;27;20204;-90
2022/11/27 02:35:21;;;;;;;12.77;3.17;;;8.10;99.90;;;;;;5132550;27;20200;-89
2022/11/27 02:37:51;;;;;;;8.40;2.33;;;8.10;99.90;;;;;;5133738;27;20654;-89
2022/11/27 02:40:23;;;;;;;8.13;2.40;;;8.10;99.90;;;;;;5134046;27;20612;-88
2022/11/27 02:42:55;;;;;;;7.33;2.63;;;8.10;99.90;;;;;;5133233;27;20232;-88
2022/11/27 02:45:28;;;;;;;7.20;2.60;;;8.10;99.90;;;;;;5132241;27;20211;-87
2022/11/27 02:47:57;;;;;;;9.33;2.57;;;8.00;99.90;;;;;;5131819;27;20578;-88
2022/11/27 02:50:26;;;;;;;14.00;3.10;;;8.10;99.90;;;;;;5132773;27;20227;-88
2022/11/27 02:52:57;;;;;;;7.00;3.00;;;8.00;99.90;;;;;;5134013;27;20214;-86
2022/11/27 02:55:27;;;;;;;7.47;2.60;;;8.10;99.90;;;;;;5133005;27;20673;-87
2022/11/27 02:57:56;;;;;;;7.27;2.53;;;8.00;99.90;;;;;;5133770;27;20206;-88
2022/11/27 03:00:25;;;;;;;4.63;2.20;;;8.00;99.90;;;;;;5136671;27;20211;-89
2022/11/27 03:02:56;;;;;;;6.93;2.50;;;8.10;99.90;;;;;;5136447;27;20223;-88
2022/11/27 03:05:28;;;;;;;7.60;2.70;;;8.10;99.90;;;;;;5137209;27;20184;-88
2022/11/27 03:08:01;;;;;;;6.77;2.83;;;8.10;99.90;;;;;;5136456;27;20537;-88
2022/11/27 03:10:36;;;;;;;7.20;2.27;;;8.10;99.90;;;;;;5137785;27;20204;-89
2022/11/27 03:13:03;;;;;;;10.57;2.70;;;8.00;99.90;;;;;;5136912;27;20195;-87
2022/11/27 03:15:42;;;;;;;7.80;2.70;;;8.10;99.90;;;;;;5136673;27;20219;-88
2022/11/27 03:18:18;;;;;;;7.63;2.47;;;8.10;99.90;;;;;;5135492;27;20212;-89
2022/11/27 03:20:47;;;;;;;5.17;2.23;;;8.00;99.90;;;;;;5136742;27;20203;-87
2022/11/27 03:23:14;;;;;;;10.57;2.80;;;8.00;99.90;;;;;;5136767;27;20254;-89
2022/11/27 03:25:41;;;;;;;4.87;2.77;;;8.00;99.90;;;;;;5137277;27;20199;-90
2022/11/27 03:28:10;;;;;;;5.90;2.43;;;8.00;99.90;;;;;;5135778;27;20215;-89
2022/11/27 03:30:40;;;;;;;5.20;2.10;;;8.10;99.90;;;;;;5136150;27;20195;-88
2022/11/27 03:33:07;;;;;;;7.67;2.63;;;8.00;99.90;;;;;;5136438;27;20195;-88
2022/11/27 03:35:35;;;;;;;7.53;2.73;;;8.00;99.90;;;;;;5135876;27;20207;-88
2022/11/27 03:38:02;;;;;;;5.77;2.50;;;8.00;99.90;;;;;;5136087;27;20203;-88
2022/11/27 03:40:34;;;;;;;3.93;2.47;;;8.00;99.90;;;;;;5137019;27;20225;-89
2022/11/27 03:43:09;;;;;;;5.50;2.37;;;7.90;99.90;;;;;;5135319;27;20709;-87
2022/11/27 03:45:48;;;;;;;4.07;2.37;;;7.80;99.90;;;;;;5135670;27;20561;-86
2022/11/27 03:48:23;;;;;;;6.03;3.30;;;7.80;99.90;;;;;;5136005;27;20199;-89
2022/11/27 03:50:59;;;;;;;5.50;2.97;;;7.90;99.90;;;;;;5135655;27;20579;-88
2022/11/27 03:53:35;;;;;;;5.60;2.53;;;7.80;99.90;;;;;;5136013;27;20244;-85
2022/11/27 03:56:11;;;;;;;7.27;3.10;;;7.90;99.90;;;;;;5133585;27;20427;-88
2022/11/27 03:58:44;;;;;;;4.80;2.50;;;7.90;99.90;;;;;;5136275;27;20934;-89
2022/11/27 04:01:16;;;;;;;9.27;3.60;;;7.80;99.90;;;;;;5135018;27;20671;-87
2022/11/27 04:03:43;;;;;;;5.60;2.50;;;7.70;99.90;;;;;;5135057;27;20228;-87
2022/11/27 04:06:11;;;;;;;6.50;2.73;;;7.70;99.90;;;;;;5134954;27;20211;-88
2022/11/27 04:08:38;;;;;;;5.27;2.57;;;7.70;99.90;;;;;;5135644;27;20659;-88
2022/11/27 04:11:05;;;;;;;6.67;2.90;;;7.70;99.90;;;;;;5135962;27;20196;-87
2022/11/27 04:13:32;;;;;;;3.43;2.60;;;7.70;99.90;;;;;;5135503;27;20557;-88
2022/11/27 04:16:01;;;;;;;3.40;2.57;;;7.60;99.90;;;;;;5135485;27;20196;-87
2022/11/27 04:18:29;;;;;;;5.83;2.87;;;7.50;99.90;;;;;;5135473;27;20203;-88
2022/11/27 04:20:56;;;;;;;3.90;2.30;;;7.50;99.90;;;;;;5135457;27;20200;-87
2022/11/27 04:23:24;;;;;;;7.43;3.33;;;7.40;99.90;;;;;;5135353;27;20798;-88
2022/11/27 04:25:51;;;;;;;7.27;2.87;;;7.50;99.90;;;;;;5135652;27;20200;-88
2022/11/27 04:28:17;;;;;;;6.00;2.60;;;7.40;99.90;;;;;;5136060;27;20577;-89
2022/11/27 04:30:45;;;;;;;6.03;2.93;;;7.40;99.90;;;;;;5136058;27;20726;-87
2022/11/27 04:33:12;;;;;;;6.77;2.53;;;7.40;99.90;;;;;;5135593;27;20201;-87
2022/11/27 04:35:40;;;;;;;5.97;2.67;;;7.40;99.90;;;;;;5135505;27;20199;-89
2022/11/27 04:38:07;;;;;;;8.40;2.43;;;7.50;99.90;;;;;;5135962;27;20208;-89
2022/11/27 04:40:33;;;;;;;7.30;2.87;;;7.50;99.90;;;;;;5135602;27;20200;-89
2022/11/27 04:43:00;;;;;;;8.93;3.03;;;7.40;99.90;;;;;;5134573;27;20218;-86
2022/11/27 04:45:28;;;;;;;4.57;2.80;;;7.50;99.90;;;;;;5135635;27;20635;-87
2022/11/27 04:47:55;;;;;;;10.20;3.47;;;7.40;99.90;;;;;;5135754;27;20203;-87
2022/11/27 04:50:22;;;;;;;8.23;3.17;;;7.40;99.90;;;;;;5134861;27;20223;-88
2022/11/27 04:52:50;;;;;;;9.63;3.63;;;7.50;99.90;;;;;;5133428;27;20204;-86
2022/11/27 04:55:17;;;;;;;8.00;2.87;;;7.50;99.90;;;;;;5133072;27;20218;-88
2022/11/27 04:57:44;;;;;;;7.83;2.97;;;7.50;99.90;;;;;;5134327;27;20200;-87
2022/11/27 05:00:12;;;;;;;6.67;2.77;;;7.50;99.90;;;;;;5134410;27;20195;-88
2022/11/27 05:02:39;;;;;;;10.83;3.10;;;7.50;99.90;;;;;;5135336;27;20218;-88
2022/11/27 05:05:06;;;;;;;8.67;3.67;;;7.50;99.90;;;;;;5135241;27;20200;-88
2022/11/27 05:07:33;;;;;;;9.53;3.37;;;7.50;99.90;;;;;;5134932;27;20275;-88
2022/11/27 05:10:01;;;;;;;6.90;3.13;;;7.50;99.90;;;;;;5135037;27;20192;-88
2022/11/27 05:12:28;;;;;;;7.57;3.67;;;7.50;99.90;;;;;;5134218;27;20203;-87
2022/11/27 05:14:55;;;;;;;11.00;3.87;;;7.50;99.90;;;;;;5134788;27;20207;-89
2022/11/27 05:17:22;;;;;;;8.73;3.60;;;7.60;99.90;;;;;;5134800;27;20199;-89
2022/11/27 05:19:48;;;;;;;6.83;2.97;;;7.40;99.90;;;;;;5135489;27;20195;-88
2022/11/27 05:22:15;;;;;;;7.30;4.20;;;7.40;99.90;;;;;;5132908;27;20878;-87
2022/11/27 05:24:42;;;;;;;7.87;3.87;;;7.40;99.90;;;;;;5133180;27;20196;-87
2022/11/27 05:27:10;;;;;;;9.40;3.50;;;7.50;99.90;;;;;;5132814;27;20204;-89
2022/11/27 05:29:38;;;;;;;7.07;3.53;;;7.50;99.90;;;;;;5133776;27;20204;-88
2022/11/27 05:32:05;;;;;;;9.17;3.27;;;7.40;99.90;;;;;;5133831;27;20280;-88
2022/11/27 05:34:34;;;;;;;9.67;3.60;;;7.40;99.90;;;;;;5134842;27;20200;-89
2022/11/27 05:37:01;;;;;;;9.73;3.80;;;7.50;99.90;;;;;;5135076;27;20198;-89
2022/11/27 05:39:29;;;;;;;5.33;3.30;;;7.40;99.90;;;;;;5133569;27;20211;-87
2022/11/27 05:41:55;;;;;;;5.13;3.20;;;7.40;99.90;;;;;;5134163;27;20203;-89
2022/11/27 05:44:24;;;;;;;6.33;3.73;;;7.40;99.90;;;;;;5133761;27;20250;-89
2022/11/27 05:46:50;;;;;;;5.93;3.60;;;7.40;99.90;;;;;;5134358;27;20207;-88
2022/11/27 05:49:17;;;;;;;6.93;4.03;;;7.40;99.90;;;;;;5134518;27;20188;-86
2022/11/27 05:51:44;;;;;;;9.07;3.97;;;7.40;99.90;;;;;;5134103;27;20218;-88
2022/11/27 05:54:11;;;;;;;7.67;3.33;;;7.30;99.90;;;;;;5134271;27;20658;-89
2022/11/27 05:56:38;;;;;;;8.97;3.33;;;7.50;99.90;;;;;;5134382;27;20333;-87
2022/11/27 05:59:04;;;;;;;9.37;4.00;;;7.30;99.90;;;;;;5134571;27;20219;-89
2022/11/27 06:01:32;;;;;;;5.63;3.77;;;7.40;99.90;;;;;;5137705;27;20684;-88
2022/11/27 06:04:00;;;;;;;5.43;3.47;;;7.40;99.90;;;;;;5139643;27;20230;-87
2022/11/27 06:06:27;;;;;;;8.87;3.70;;;7.40;99.90;;;;;;5132177;27;20200;-85
2022/11/27 06:08:54;;;;;;;6.73;3.70;;;7.50;99.90;;;;;;5132805;27;20214;-88
2022/11/27 06:11:22;;;;;;;5.13;3.10;;;7.50;99.90;;;;;;5134161;27;20192;-86
2022/11/27 06:13:50;;;;;;;4.33;3.00;;;7.50;99.90;;;;;;5133286;27;20202;-88
2022/11/27 06:16:18;;;;;;;6.07;3.10;;;7.50;99.90;;;;;;5134479;27;20211;-88
2022/11/27 06:18:49;;;;;;;7.23;3.53;;;7.50;99.90;;;;;;5134172;27;20677;-89
2022/11/27 06:21:16;;;;;;;6.30;3.47;;;7.40;99.90;;;;;;5134208;27;20192;-88
2022/11/27 06:23:43;;;;;;;6.20;3.10;;;7.40;99.90;;;;;;5133447;27;20224;-89
2022/11/27 06:26:12;;;;;;;7.60;3.43;;;7.40;99.90;;;;;;5138860;27;20393;-87
2022/11/27 06:28:39;;;;;;;8.23;3.83;;;7.50;99.90;;;;;;5153969;27;20207;-88
2022/11/27 06:31:08;;;;;;;5.53;3.23;;;7.50;99.90;;;;;;5152890;27;20278;-88
2022/11/27 06:33:35;;;;;;;11.17;3.80;;;7.50;99.90;;;;;;5156959;27;20191;-87
2022/11/27 06:36:04;;;;;;;5.37;3.30;;;7.50;99.90;;;;;;5158762;27;20210;-87
2022/11/27 06:38:32;;;;;;;5.50;3.03;;;7.40;99.90;;;;;;5158177;27;20194;-87
2022/11/27 06:41:05;;;;;;;8.43;3.70;;;7.40;99.90;;;;;;5158766;27;20222;-87
2022/11/27 06:43:32;;;;;;;5.17;3.57;;;7.40;99.90;;;;;;5157681;27;20223;-89
2022/11/27 06:46:00;;;;;;;5.60;3.10;;;7.40;99.90;;;;;;5158663;27;20206;-88
2022/11/27 06:48:27;;;;;;;6.30;3.67;;;7.40;99.90;;;;;;5158714;27;20187;-89
2022/11/27 06:50:54;;;;;;;6.63;4.32;;;7.40;99.90;;;;;;5157309;27;20425;-88
2022/11/27 06:53:22;;;;;;;5.33;3.80;;;7.50;99.90;;;;;;5158786;27;20203;-88
2022/11/27 06:55:50;;;;;;;6.13;3.47;;;7.40;99.90;;;;;;5158231;27;20217;-86
2022/11/27 06:58:16;;;;;;;5.87;3.83;;;7.40;99.90;;;;;;5158609;27;20199;-88
2022/11/27 07:00:43;;;;;;;10.50;4.13;;;7.50;99.90;;;;;;5156965;27;20210;-86
2022/11/27 07:03:11;;;;;;;7.57;3.90;;;7.50;99.90;;;;;;5156849;27;20768;-89
2022/11/27 07:05:39;;;;;;;5.00;3.20;;;7.50;99.90;;;;;;5157603;27;20200;-89
2022/11/27 07:08:06;;;;;;;5.27;3.60;;;7.50;99.90;;;;;;5158182;27;20188;-89
2022/11/27 07:10:35;;;;;;;7.57;3.77;;;7.50;99.90;;;;;;5157719;27;20209;-89
2022/11/27 07:13:03;;;;;;;3.93;3.30;;;7.60;99.90;;;;;;5158514;27;20191;-88
2022/11/27 07:15:30;;;;;;;4.60;3.37;;;7.50;99.90;;;;;;5157970;27;20203;-87
2022/11/27 07:17:58;;;;;;;6.90;4.13;;;7.50;99.90;;;;;;5157513;27;20201;-89
2022/11/27 07:20:24;;;;;;;5.80;3.53;;;7.50;99.90;;;;;;5157222;27;20199;-89
2022/11/27 07:22:51;;;;;;;5.60;3.93;;;7.40;99.90;;;;;;5157748;27;20188;-88
2022/11/27 07:25:18;;;;;;;6.80;3.80;;;7.40;99.90;;;;;;5157362;27;20206;-89
2022/11/27 07:27:46;;;;;;;5.37;4.00;;;7.40;99.90;;;;;;5157796;27;20195;-86
2022/11/27 07:30:14;;;;;;;5.40;3.53;;;7.50;99.90;;;;;;5157647;27;20199;-89
2022/11/27 07:32:41;;;;;;;4.13;3.40;;;7.40;99.90;;;;;;5155830;27;20634;-89
2022/11/27 07:35:09;;;;;;;5.13;4.00;;;7.50;99.90;;;;;;5157197;27;20191;-89
2022/11/27 07:37:36;;;;;;;8.97;4.40;;;7.40;99.90;;;;;;5157418;27;20187;-88
2022/11/27 07:40:04;;;;;;;5.53;3.60;;;7.40;99.90;;;;;;5157137;27;20642;-89
2022/11/27 07:42:31;;;;;;;7.63;4.03;;;7.50;99.90;;;;;;5156491;27;20822;-88
2022/11/27 07:44:59;;;;;;;7.53;4.00;;;7.60;99.90;;;;;;5156438;27;20238;-89
2022/11/27 07:47:29;;;;;;;6.83;4.20;;;7.60;99.90;;;;;;5157775;27;20296;-88
2022/11/27 07:49:59;;;;;;;6.23;4.10;;;7.50;99.90;;;;;;5156959;27;20218;-88
2022/11/27 07:52:26;;;;;;;6.87;4.10;;;7.50;99.90;;;;;;5157260;27;20657;-89
2022/11/27 07:54:54;;;;;;;6.43;4.67;;;7.50;99.90;;;;;;5155775;27;20617;-87
2022/11/27 07:57:20;;;;;;;9.70;3.90;;;7.50;99.90;;;;;;5157309;27;20202;-86
2022/11/27 07:59:47;;;;;;;6.50;4.17;;;7.40;99.90;;;;;;5157323;27;20214;-88
2022/11/27 08:02:16;;;;;;;6.33;4.30;;;7.40;99.90;;;;;;5156682;27;20332;-88
2022/11/27 08:04:42;;;;;;;5.80;3.90;;;7.30;99.90;;;;;;5157066;27;20215;-88
2022/11/27 08:07:09;;;;;;;4.90;3.83;;;7.30;99.90;;;;;;5157391;27;20199;-88
2022/11/27 08:09:38;;;;;;;6.43;4.13;;;7.30;99.90;;;;;;5156569;27;20662;-90
2022/11/27 08:12:07;;;;;;;6.47;4.10;;;7.30;99.90;;;;;;5156972;27;20202;-89
2022/11/27 08:14:34;;;;;;;6.33;3.77;;;7.30;99.90;;;;;;5155877;27;20570;-90
2022/11/27 08:17:00;;;;;;;6.17;4.27;;;7.30;99.90;;;;;;5154346;27;20538;-89
2022/11/27 08:19:30;;;;;;;4.43;3.83;;;7.30;99.90;;;;;;5156116;27;20195;-90
2022/11/27 08:21:58;;;;;;;7.27;4.27;;;7.40;99.90;;;;;;5156453;27;20196;-90
2022/11/27 08:24:25;;;;;;;6.63;4.27;;;7.40;99.90;;;;;;5155627;27;20658;-90
2022/11/27 08:26:52;;;;;;;5.73;4.17;;;7.40;99.90;;;;;;5155714;27;20574;-90
2022/11/27 08:29:19;;;;;;;5.67;4.00;;;7.40;99.90;;;;;;5156168;27;20691;-88
2022/11/27 08:31:46;;;;;;;6.27;4.30;;;7.50;99.90;;;;;;5155242;27;20199;-89
2022/11/27 08:34:12;;;;;;;7.70;4.43;;;7.50;99.90;;;;;;5154940;27;20191;-89
2022/11/27 08:36:40;;;;;;;6.47;4.30;;;7.50;99.90;;;;;;5154133;27;20199;-89
2022/11/27 08:39:07;;;;;;;5.70;4.30;;;7.50;99.90;;;;;;5150485;27;20190;-89
2022/11/27 08:41:34;;;;;;;6.30;4.23;;;7.50;99.90;;;;;;5135220;27;20200;-89
2022/11/27 08:44:01;;;;;;;6.77;3.93;;;7.40;99.90;;;;;;5135340;27;20216;-88
2022/11/27 08:46:29;;;;;;;6.70;4.55;;;7.50;99.90;;;;;;5134315;27;20438;-88
2022/11/27 08:48:55;;;;;;;6.73;4.67;;;7.40;99.90;;;;;;5134144;27;20207;-86
2022/11/27 08:51:22;;;;;;;9.57;5.10;;;7.40;99.90;;;;;;5134168;27;20207;-88
2022/11/27 08:53:52;;;;;;;9.17;4.93;;;7.40;99.90;;;;;;5134169;27;20188;-89
2022/11/27 08:56:22;;;;;;;6.97;4.40;;;7.40;99.90;;;;;;5147001;27;20191;-88
2022/11/27 08:58:49;;;;;;;8.93;4.90;;;7.40;99.90;;;;;;5155090;27;20202;-89
2022/11/27 09:01:18;;;;;;;16.03;5.10;;;7.50;99.90;;;;;;5154078;27;20218;-88
2022/11/27 09:03:46;;;;;;;7.70;4.90;;;7.50;99.90;;;;;;5156021;27;20214;-87
2022/11/27 09:06:15;;;;;;;8.53;4.53;;;7.50;99.90;;;;;;5156092;27;20191;-90
2022/11/27 09:08:43;;;;;;;12.13;4.30;;;7.50;99.90;;;;;;5155803;27;20187;-91
2022/11/27 09:11:12;;;;;;;8.53;4.83;;;7.50;99.90;;;;;;5156475;27;20197;-92
2022/11/27 09:13:39;;;;;;;9.17;4.60;;;7.50;99.90;;;;;;5155944;27;20195;-91
2022/11/27 09:16:09;;;;;;;8.70;5.50;;;7.50;99.90;;;;;;5155308;27;20422;-90
2022/11/27 09:18:36;;;;;;;10.37;5.03;;;7.50;99.90;;;;;;5155667;27;20187;-92
2022/11/27 09:21:05;;;;;;;8.93;4.33;;;7.50;99.90;;;;;;5156136;27;20233;-92
2022/11/27 09:23:32;;;;;;;6.90;4.30;;;7.60;99.90;;;;;;5155720;27;20187;-90
2022/11/27 09:25:59;;;;;;;7.03;4.47;;;7.50;99.90;;;;;;5156005;27;20230;-90
2022/11/27 09:28:28;;;;;;;6.90;4.30;;;7.60;99.90;;;;;;5155670;27;20666;-89
2022/11/27 09:30:56;;;;;;;5.97;4.03;;;7.60;99.90;;;;;;5155547;27;20183;-89
2022/11/27 09:33:23;;;;;;;6.17;4.30;;;7.60;99.90;;;;;;5155100;27;20207;-90
2022/11/27 09:35:50;;;;;;;8.23;4.70;;;7.60;99.90;;;;;;5155302;27;20190;-89
2022/11/27 09:38:17;;;;;;;6.77;4.13;;;7.50;99.90;;;;;;5155406;27;20210;-88
2022/11/27 09:40:47;;;;;;;6.13;3.80;;;7.50;99.90;;;;;;5155793;27;20203;-90
2022/11/27 09:43:15;;;;;;;8.57;4.77;;;7.40;99.90;;;;;;5155593;27;20203;-89
2022/11/27 09:45:47;;;;;;;10.00;5.95;;;7.50;99.90;;;;;;5154340;27;20445;-89
2022/11/27 09:48:21;;;;;;;8.70;4.80;;;7.60;99.90;;;;;;5155449;27;20225;-89
2022/11/27 09:50:51;;;;;;;7.43;4.63;;;7.60;99.90;;;;;;5155183;27;20582;-89
2022/11/27 09:53:27;;;;;;;6.13;4.47;;;7.70;99.90;;;;;;5155365;27;20691;-89
2022/11/27 09:55:56;;;;;;;8.23;4.60;;;7.70;99.90;;;;;;5155234;27;20207;-89
2022/11/27 09:58:34;;;;;;;7.63;4.50;;;7.70;99.90;;;;;;5155026;27;20195;-90
2022/11/27 10:01:11;;;;;;;6.30;4.23;;;7.70;99.90;;;;;;5155342;27;20195;-87
2022/11/27 10:03:39;;;;;;;10.83;5.30;;;7.80;99.90;;;;;;5155342;27;20187;-89
2022/11/27 10:06:20;;;;;;;8.70;4.93;;;7.70;99.90;;;;;;5155895;27;20577;-89
2022/11/27 10:08:56;;;;;;;6.33;4.37;;;7.80;99.90;;;;;;5155127;27;20282;-89
2022/11/27 10:11:30;;;;;;;8.80;5.57;;;7.80;99.90;;;;;;5155685;27;20198;-90
2022/11/27 10:14:10;;;;;;;5.93;4.50;;;7.80;99.90;;;;;;5154969;27;20198;-90
2022/11/27 10:16:44;;;;;;;8.93;4.90;;;7.80;99.90;;;;;;5155245;27;20657;-89
2022/11/27 10:19:25;;;;;;;7.73;4.90;;;7.90;99.90;;;;;;5155372;27;20210;-89
2022/11/27 10:21:57;;;;;;;12.13;5.40;;;7.80;99.90;;;;;;5155241;27;20210;-90
2022/11/27 10:24:35;;;;;;;7.03;4.60;;;7.80;99.90;;;;;;5154870;27;20223;-89
2022/11/27 10:27:03;;;;;;;8.67;4.80;;;7.90;99.90;;;;;;5154669;27;20641;-89
2022/11/27 10:29:36;;;;;;;7.30;4.77;;;8.00;99.90;;;;;;5154918;27;20642;-89
2022/11/27 10:32:10;;;;;;;6.30;4.73;;;8.00;99.90;;;;;;5155366;27;20209;-89
2022/11/27 10:34:41;;;;;;;6.93;5.43;;;8.10;99.90;;;;;;5155162;27;20203;-89
2022/11/27 10:37:14;;;;;;;7.83;4.17;;;8.00;99.90;;;;;;5155625;27;20222;-91
2022/11/27 10:39:46;;;;;;;9.07;5.53;;;8.00;99.90;;;;;;5155335;27;20293;-89
2022/11/27 10:42:19;;;;;;;9.63;4.90;;;7.90;99.90;;;;;;5155200;27;20207;-92
2022/11/27 10:44:50;;;;;;;10.05;6.18;;;8.00;99.90;;;;;;5154379;27;20463;-93
2022/11/27 10:47:22;;;;;;;7.53;4.73;;;8.00;99.90;;;;;;5155693;27;20210;-91
2022/11/27 10:49:49;;;;;;;9.03;5.53;;;8.10;99.90;;;;;;5155338;27;20229;-91
2022/11/27 10:52:18;;;;;;;7.37;5.57;;;8.10;99.90;;;;;;5155043;27;20207;-91
2022/11/27 10:54:50;;;;;;;7.23;4.70;;;8.10;99.90;;;;;;5154963;27;20211;-90
2022/11/27 10:57:53;;;;;;;8.10;5.00;;;8.10;99.90;;;;;;5155678;27;20199;-91
2022/11/27 11:00:21;;;;;;;7.17;5.23;;;8.10;99.90;;;;;;5091783;28;20747;-90
2022/11/27 11:02:59;;;;;;;8.13;5.00;;;8.00;99.90;;;;;;5143736;27;20650;-91
2022/11/27 11:05:27;;;;;;;10.57;5.20;;;8.00;99.90;;;;;;5154713;27;20313;-91
2022/11/27 11:08:01;;;;;;;7.07;5.50;;;8.00;99.90;;;;;;5155038;27;20203;-90
2022/11/27 11:10:31;;;;;;;7.10;4.97;;;8.00;99.90;;;;;;5154907;27;20654;-91
2022/11/27 11:13:26;;;;;;;8.47;5.77;;;8.00;99.90;;;;;;5154519;27;20448;-88
2022/11/27 11:15:56;;;;;;;8.83;4.73;;;8.10;99.90;;;;;;5154686;27;20214;-88
2022/11/27 11:18:26;;;;;;;6.43;4.63;;;8.20;99.90;;;;;;5154364;27;20206;-88
2022/11/27 11:20:56;;;;;;;7.07;4.97;;;8.20;99.90;;;;;;5157810;27;20202;-88
2022/11/27 11:23:29;;;;;;;7.13;4.53;;;8.10;99.90;;;;;;5158183;27;20210;-87
2022/11/27 11:25:59;;;;;;;8.63;4.60;;;8.20;99.90;;;;;;5157993;27;20709;-88
2022/11/27 11:28:27;;;;;;;10.77;4.70;;;8.30;99.90;;;;;;5158162;27;20214;-88
2022/11/27 11:30:57;;;;;;;9.50;5.57;;;8.30;99.90;;;;;;5158045;27;20205;-87
2022/11/27 11:33:26;;;;;;;7.90;4.90;;;8.20;99.90;;;;;;5157798;27;20640;-88
2022/11/27 11:35:55;;;;;;;8.60;5.37;;;8.30;99.90;;;;;;5157487;27;20668;-87
2022/11/27 11:38:28;;;;;;;11.03;5.27;;;8.30;99.90;;;;;;5158015;27;20188;-87
2022/11/27 11:41:01;;;;;;;6.63;4.83;;;8.30;99.90;;;;;;5157415;27;20206;-88
2022/11/27 11:43:31;;;;;;;8.25;5.80;;;8.40;99.90;;;;;;5157103;27;20436;-88
2022/11/27 11:46:07;;;;;;;9.53;5.00;;;8.50;99.90;;;;;;5157417;27;20233;-88
2022/11/27 11:48:37;;;;;;;5.97;4.73;;;8.60;99.90;;;;;;5157351;27;20650;-87
2022/11/27 11:51:11;;;;;;;6.80;4.27;;;8.60;99.90;;;;;;5157291;27;20254;-87
2022/11/27 11:53:40;;;;;;;7.50;4.67;;;8.60;99.90;;;;;;5157381;27;20205;-88
2022/11/27 11:56:21;;;;;;;8.20;4.17;;;8.60;99.90;;;;;;5156897;27;20229;-87
2022/11/27 11:58:56;;;;;;;6.87;4.50;;;8.70;99.90;;;;;;5157641;27;20561;-87
2022/11/27 12:01:53;;;;;;;6.20;4.97;;;8.70;99.90;;;;;;5157571;27;20247;-87
2022/11/27 12:04:44;;;;;;;4.83;3.73;;;8.70;99.90;;;;;;5155639;27;20565;-87
2022/11/27 12:07:19;;;;;;;5.57;4.60;;;8.70;99.90;;;;;;5156865;27;20203;-88
2022/11/27 12:09:53;;;;;;;7.53;4.40;;;8.80;99.90;;;;;;5157055;27;20194;-87
2022/11/27 12:12:39;;;;;;;7.32;4.80;;;8.80;99.90;;;;;;5156564;27;20425;-88
2022/11/27 12:15:16;;;;;;;4.97;4.00;;;8.80;99.90;;;;;;5158955;27;20198;-89
2022/11/27 12:17:55;;;;;;;5.60;4.30;;;8.90;99.90;;;;;;5165598;27;20199;-89
2022/11/27 12:20:33;;;;;;;7.67;4.80;;;9.00;99.90;;;;;;5165314;27;20198;-90
2022/11/27 12:23:27;;;;;;;6.30;4.03;;;8.90;99.90;;;;;;5164291;27;20195;-89
2022/11/27 12:26:02;;;;;;;4.17;3.73;;;8.90;99.90;;;;;;5160315;27;20227;-90
2022/11/27 12:28:56;;;;;;;6.23;4.03;;;8.80;99.90;;;;;;5162427;27;20203;-89
2022/11/27 12:31:35;;;;;;;8.00;3.97;;;8.70;99.90;;;;;;5160639;27;20230;-91
2022/11/27 12:34:04;;;;;;;6.07;4.20;;;8.70;99.90;;;;;;5164255;27;20545;-91
2022/11/27 12:36:53;;;;;;;7.63;4.13;;;8.60;99.90;;;;;;5164884;27;20267;-93
2022/11/27 12:39:25;;;;;;;4.70;4.17;;;8.60;99.90;;;;;;5167039;27;20202;-90
2022/11/27 12:42:07;;;;;;;7.38;5.43;;;8.70;99.90;;;;;;5164640;27;20417;-88
2022/11/27 12:44:44;;;;;;;5.23;4.23;;;8.70;99.90;;;;;;5167372;27;20203;-90
2022/11/27 12:47:18;;;;;;;9.50;4.60;;;8.80;99.90;;;;;;5162003;27;20186;-87
2022/11/27 12:49:47;;;;;;;4.83;4.17;;;8.80;99.90;;;;;;5156507;27;20226;-88
2022/11/27 12:52:18;;;;;;;5.40;4.10;;;8.70;99.90;;;;;;5156141;27;20203;-87
2022/11/27 12:54:51;;;;;;;5.20;4.00;;;8.70;99.90;;;;;;5156405;27;20213;-87
2022/11/27 12:57:23;;;;;;;5.07;4.00;;;8.80;99.90;;;;;;5156282;27;20203;-88
2022/11/27 12:59:55;;;;;;;5.50;4.50;;;8.70;99.90;;;;;;5156350;27;20199;-87
2022/11/27 13:02:29;;;;;;;6.23;4.17;;;8.70;99.90;;;;;;5156363;27;20210;-88
2022/11/27 13:05:01;;;;;;;7.97;4.50;;;8.70;99.90;;;;;;5156457;27;20214;-87
2022/11/27 13:07:38;;;;;;;6.77;4.53;;;8.70;99.90;;;;;;5155559;27;20199;-86
2022/11/27 13:10:15;;;;;;;6.45;4.90;;;8.80;99.90;;;;;;5155750;27;20517;-86